sensor_id;sensor_type;location;lat;lon;timestamp;P1;P2;P0
12542;PMS3003;6337;49.556;25.594;2022-11-20T00:02:10;23.85;13.50;
12542;PMS3003;6337;49.556;25.594;2022-11-20T00:04:38;21.52;11.93;
12542;PMS3003;6337;49.556;25.594;2022-11-20T00:07:05;21.10;11.95;
12542;PMS3003;6337;49.556;25.594;2022-11-20T00:09:33;22.05;12.00;
12542;PMS3003;6337;49.556;25.594;2022-11-20T00:12:01;20.30;13.00;
12542;PMS3003;6337;49.556;25.594;2022-11-20T00:14:28;29.60;13.45;
12542;PMS3003;6337;49.556;25.594;2022-11-20T00:16:56;19.05;12.95;
12542;PMS3003;6337;49.556;25.594;2022-11-20T00:19:24;21.77;13.23;
12542;PMS3003;6337;49.556;25.594;2022-11-20T00:21:52;21.98;11.93;
12542;PMS3003;6337;49.556;25.594;2022-11-20T00:24:20;16.02;10.88;
12542;PMS3003;6337;49.556;25.594;2022-11-20T00:26:48;22.52;13.30;
12542;PMS3003;6337;49.556;25.594;2022-11-20T00:29:16;22.55;11.32;
12542;PMS3003;6337;49.556;25.594;2022-11-20T00:31:43;22.70;13.15;
12542;PMS3003;6337;49.556;25.594;2022-11-20T00:34:11;27.55;12.98;
12542;PMS3003;6337;49.556;25.594;2022-11-20T00:36:40;20.38;12.20;
12542;PMS3003;6337;49.556;25.594;2022-11-20T00:39:08;34.53;12.45;
12542;PMS3003;6337;49.556;25.594;2022-11-20T00:41:35;18.38;11.93;
12542;PMS3003;6337;49.556;25.594;2022-11-20T00:44:03;14.43;10.75;
12542;PMS3003;6337;49.556;25.594;2022-11-20T00:46:31;20.83;10.82;
12542;PMS3003;6337;49.556;25.594;2022-11-20T00:48:59;18.13;10.40;
12542;PMS3003;6337;49.556;25.594;2022-11-20T00:51:26;20.15;10.30;
12542;PMS3003;6337;49.556;25.594;2022-11-20T00:53:56;18.67;11.70;
12542;PMS3003;6337;49.556;25.594;2022-11-20T00:56:25;23.73;11.00;
12542;PMS3003;6337;49.556;25.594;2022-11-20T00:58:52;15.40;10.35;
12542;PMS3003;6337;49.556;25.594;2022-11-20T01:01:20;14.50;9.40;
12542;PMS3003;6337;49.556;25.594;2022-11-20T01:03:49;19.20;10.90;
12542;PMS3003;6337;49.556;25.594;2022-11-20T01:06:17;21.67;11.25;
12542;PMS3003;6337;49.556;25.594;2022-11-20T01:08:45;21.60;11.25;
12542;PMS3003;6337;49.556;25.594;2022-11-20T01:11:18;20.33;12.23;
12542;PMS3003;6337;49.556;25.594;2022-11-20T01:13:46;18.90;11.40;
12542;PMS3003;6337;49.556;25.594;2022-11-20T01:16:14;20.38;11.75;
12542;PMS3003;6337;49.556;25.594;2022-11-20T01:18:43;20.30;10.65;
12542;PMS3003;6337;49.556;25.594;2022-11-20T01:21:12;20.42;12.70;
12542;PMS3003;6337;49.556;25.594;2022-11-20T01:23:40;22.48;12.48;
12542;PMS3003;6337;49.556;25.594;2022-11-20T01:26:08;22.15;11.88;
12542;PMS3003;6337;49.556;25.594;2022-11-20T01:28:38;20.70;14.13;
12542;PMS3003;6337;49.556;25.594;2022-11-20T01:31:10;27.02;14.68;
12542;PMS3003;6337;49.556;25.594;2022-11-20T01:33:38;28.02;14.10;
12542;PMS3003;6337;49.556;25.594;2022-11-20T01:36:06;25.60;13.57;
12542;PMS3003;6337;49.556;25.594;2022-11-20T01:38:34;20.88;12.60;
12542;PMS3003;6337;49.556;25.594;2022-11-20T01:41:01;23.67;13.05;
12542;PMS3003;6337;49.556;25.594;2022-11-20T01:43:29;28.73;13.82;
12542;PMS3003;6337;49.556;25.594;2022-11-20T01:45:58;21.67;14.43;
12542;PMS3003;6337;49.556;25.594;2022-11-20T01:48:29;22.08;11.95;
12542;PMS3003;6337;49.556;25.594;2022-11-20T01:50:59;24.30;11.57;
12542;PMS3003;6337;49.556;25.594;2022-11-20T01:53:28;15.63;11.23;
12542;PMS3003;6337;49.556;25.594;2022-11-20T01:55:58;20.23;12.63;
12542;PMS3003;6337;49.556;25.594;2022-11-20T01:58:27;20.95;12.45;
12542;PMS3003;6337;49.556;25.594;2022-11-20T02:00:58;28.17;13.43;
12542;PMS3003;6337;49.556;25.594;2022-11-20T02:03:26;22.42;11.80;
12542;PMS3003;6337;49.556;25.594;2022-11-20T02:05:55;27.25;14.35;
12542;PMS3003;6337;49.556;25.594;2022-11-20T02:08:24;20.00;12.23;
12542;PMS3003;6337;49.556;25.594;2022-11-20T02:10:52;22.83;13.07;
12542;PMS3003;6337;49.556;25.594;2022-11-20T02:13:21;20.75;12.02;
12542;PMS3003;6337;49.556;25.594;2022-11-20T02:16:09;24.92;14.10;
12542;PMS3003;6337;49.556;25.594;2022-11-20T02:18:37;20.98;11.00;
12542;PMS3003;6337;49.556;25.594;2022-11-20T02:21:06;27.48;14.45;
12542;PMS3003;6337;49.556;25.594;2022-11-20T02:23:36;17.83;12.35;
12542;PMS3003;6337;49.556;25.594;2022-11-20T02:26:09;21.02;12.77;
12542;PMS3003;6337;49.556;25.594;2022-11-20T02:28:37;17.80;11.27;
12542;PMS3003;6337;49.556;25.594;2022-11-20T02:31:05;22.98;12.95;
12542;PMS3003;6337;49.556;25.594;2022-11-20T02:33:32;21.10;13.45;
12542;PMS3003;6337;49.556;25.594;2022-11-20T02:36:00;28.67;14.38;
12542;PMS3003;6337;49.556;25.594;2022-11-20T02:38:28;21.73;13.80;
12542;PMS3003;6337;49.556;25.594;2022-11-20T02:40:55;24.55;13.77;
12542;PMS3003;6337;49.556;25.594;2022-11-20T02:43:24;25.45;15.13;
12542;PMS3003;6337;49.556;25.594;2022-11-20T02:45:52;29.05;14.65;
12542;PMS3003;6337;49.556;25.594;2022-11-20T02:48:19;26.30;14.45;
12542;PMS3003;6337;49.556;25.594;2022-11-20T02:50:47;24.17;13.90;
12542;PMS3003;6337;49.556;25.594;2022-11-20T02:53:14;26.58;13.68;
12542;PMS3003;6337;49.556;25.594;2022-11-20T02:55:42;27.15;13.15;
12542;PMS3003;6337;49.556;25.594;2022-11-20T02:58:09;30.88;14.13;
12542;PMS3003;6337;49.556;25.594;2022-11-20T03:00:41;21.27;13.13;
12542;PMS3003;6337;49.556;25.594;2022-11-20T03:03:10;28.45;12.48;
12542;PMS3003;6337;49.556;25.594;2022-11-20T03:05:38;25.23;13.27;
12542;PMS3003;6337;49.556;25.594;2022-11-20T03:08:07;23.30;12.38;
12542;PMS3003;6337;49.556;25.594;2022-11-20T03:10:34;21.30;12.68;
12542;PMS3003;6337;49.556;25.594;2022-11-20T03:13:02;28.65;13.85;
12542;PMS3003;6337;49.556;25.594;2022-11-20T03:15:31;28.58;14.27;
12542;PMS3003;6337;49.556;25.594;2022-11-20T03:18:00;22.88;14.80;
12542;PMS3003;6337;49.556;25.594;2022-11-20T03:20:28;28.30;14.00;
12542;PMS3003;6337;49.556;25.594;2022-11-20T03:22:56;25.88;14.32;
12542;PMS3003;6337;49.556;25.594;2022-11-20T03:25:23;26.70;15.05;
12542;PMS3003;6337;49.556;25.594;2022-11-20T03:27:51;26.30;14.55;
12542;PMS3003;6337;49.556;25.594;2022-11-20T03:30:19;26.77;15.15;
12542;PMS3003;6337;49.556;25.594;2022-11-20T03:32:47;26.40;13.90;
12542;PMS3003;6337;49.556;25.594;2022-11-20T03:35:16;30.38;15.13;
12542;PMS3003;6337;49.556;25.594;2022-11-20T03:37:43;28.15;14.00;
12542;PMS3003;6337;49.556;25.594;2022-11-20T03:40:11;19.83;10.73;
12542;PMS3003;6337;49.556;25.594;2022-11-20T03:42:39;29.23;13.10;
12542;PMS3003;6337;49.556;25.594;2022-11-20T03:45:16;23.88;13.00;
12542;PMS3003;6337;49.556;25.594;2022-11-20T03:47:44;31.20;14.20;
12542;PMS3003;6337;49.556;25.594;2022-11-20T03:50:13;28.83;14.05;
12542;PMS3003;6337;49.556;25.594;2022-11-20T03:52:42;26.73;14.13;
12542;PMS3003;6337;49.556;25.594;2022-11-20T03:55:12;28.63;14.20;
12542;PMS3003;6337;49.556;25.594;2022-11-20T03:57:40;29.77;14.30;
12542;PMS3003;6337;49.556;25.594;2022-11-20T04:00:08;23.67;14.25;
12542;PMS3003;6337;49.556;25.594;2022-11-20T04:02:36;24.38;13.27;
12542;PMS3003;6337;49.556;25.594;2022-11-20T04:05:04;21.67;12.98;
12542;PMS3003;6337;49.556;25.594;2022-11-20T04:07:33;21.45;12.85;
12542;PMS3003;6337;49.556;25.594;2022-11-20T04:10:04;26.00;13.43;
12542;PMS3003;6337;49.556;25.594;2022-11-20T04:12:32;21.90;12.85;
12542;PMS3003;6337;49.556;25.594;2022-11-20T04:15:00;27.35;12.90;
12542;PMS3003;6337;49.556;25.594;2022-11-20T04:17:28;19.15;11.80;
12542;PMS3003;6337;49.556;25.594;2022-11-20T04:19:55;20.17;10.95;
12542;PMS3003;6337;49.556;25.594;2022-11-20T04:22:22;25.80;14.82;
12542;PMS3003;6337;49.556;25.594;2022-11-20T04:24:50;25.45;11.55;
12542;PMS3003;6337;49.556;25.594;2022-11-20T04:27:19;28.35;11.95;
12542;PMS3003;6337;49.556;25.594;2022-11-20T04:29:47;25.20;13.77;
12542;PMS3003;6337;49.556;25.594;2022-11-20T04:32:14;26.00;12.45;
12542;PMS3003;6337;49.556;25.594;2022-11-20T04:34:42;22.77;13.25;
12542;PMS3003;6337;49.556;25.594;2022-11-20T04:37:09;24.42;12.60;
12542;PMS3003;6337;49.556;25.594;2022-11-20T04:39:37;34.25;14.00;
12542;PMS3003;6337;49.556;25.594;2022-11-20T04:42:05;25.42;13.35;
12542;PMS3003;6337;49.556;25.594;2022-11-20T04:44:52;36.05;15.00;
12542;PMS3003;6337;49.556;25.594;2022-11-20T04:47:20;107.15;30.67;
12542;PMS3003;6337;49.556;25.594;2022-11-20T04:49:47;56.53;22.00;
12542;PMS3003;6337;49.556;25.594;2022-11-20T04:52:15;37.88;16.98;
12542;PMS3003;6337;49.556;25.594;2022-11-20T04:54:43;30.05;16.98;
12542;PMS3003;6337;49.556;25.594;2022-11-20T04:57:12;37.33;18.73;
12542;PMS3003;6337;49.556;25.594;2022-11-20T04:59:40;40.58;22.42;
12542;PMS3003;6337;49.556;25.594;2022-11-20T05:02:09;82.28;32.20;
12542;PMS3003;6337;49.556;25.594;2022-11-20T05:04:37;48.42;21.23;
12542;PMS3003;6337;49.556;25.594;2022-11-20T05:07:05;38.30;20.80;
12542;PMS3003;6337;49.556;25.594;2022-11-20T05:09:32;43.65;21.33;
12542;PMS3003;6337;49.556;25.594;2022-11-20T05:12:00;32.17;16.20;
12542;PMS3003;6337;49.556;25.594;2022-11-20T05:14:27;25.60;13.80;
12542;PMS3003;6337;49.556;25.594;2022-11-20T05:16:55;27.35;15.73;
12542;PMS3003;6337;49.556;25.594;2022-11-20T05:19:24;27.23;14.40;
12542;PMS3003;6337;49.556;25.594;2022-11-20T05:21:52;27.13;14.95;
12542;PMS3003;6337;49.556;25.594;2022-11-20T05:24:19;28.92;13.23;
12542;PMS3003;6337;49.556;25.594;2022-11-20T05:26:48;22.02;14.15;
12542;PMS3003;6337;49.556;25.594;2022-11-20T05:29:15;34.50;17.27;
12542;PMS3003;6337;49.556;25.594;2022-11-20T05:31:43;27.23;14.70;
12542;PMS3003;6337;49.556;25.594;2022-11-20T05:34:11;33.88;15.30;
12542;PMS3003;6337;49.556;25.594;2022-11-20T05:36:39;20.63;13.70;
12542;PMS3003;6337;49.556;25.594;2022-11-20T05:39:07;27.65;16.58;
12542;PMS3003;6337;49.556;25.594;2022-11-20T05:41:34;41.80;19.35;
12542;PMS3003;6337;49.556;25.594;2022-11-20T05:44:02;41.30;20.33;
12542;PMS3003;6337;49.556;25.594;2022-11-20T05:46:30;54.13;24.33;
12542;PMS3003;6337;49.556;25.594;2022-11-20T05:48:58;38.50;19.05;
12542;PMS3003;6337;49.556;25.594;2022-11-20T05:51:26;40.38;17.17;
12542;PMS3003;6337;49.556;25.594;2022-11-20T05:53:57;31.88;14.60;
12542;PMS3003;6337;49.556;25.594;2022-11-20T05:56:24;31.08;15.82;
12542;PMS3003;6337;49.556;25.594;2022-11-20T05:58:55;37.92;18.38;
12542;PMS3003;6337;49.556;25.594;2022-11-20T06:01:24;27.52;15.60;
12542;PMS3003;6337;49.556;25.594;2022-11-20T06:03:52;35.85;15.73;
12542;PMS3003;6337;49.556;25.594;2022-11-20T06:06:20;48.55;19.27;
12542;PMS3003;6337;49.556;25.594;2022-11-20T06:08:48;40.75;20.52;
12542;PMS3003;6337;49.556;25.594;2022-11-20T06:11:17;29.98;16.30;
12542;PMS3003;6337;49.556;25.594;2022-11-20T06:13:45;36.88;15.70;
12542;PMS3003;6337;49.556;25.594;2022-11-20T06:16:13;28.58;14.52;
12542;PMS3003;6337;49.556;25.594;2022-11-20T06:18:41;31.23;13.73;
12542;PMS3003;6337;49.556;25.594;2022-11-20T06:21:10;32.13;14.27;
12542;PMS3003;6337;49.556;25.594;2022-11-20T06:23:38;24.27;13.05;
12542;PMS3003;6337;49.556;25.594;2022-11-20T06:26:07;25.33;12.40;
12542;PMS3003;6337;49.556;25.594;2022-11-20T06:28:36;24.85;13.43;
12542;PMS3003;6337;49.556;25.594;2022-11-20T06:31:04;24.92;14.10;
12542;PMS3003;6337;49.556;25.594;2022-11-20T06:33:32;34.70;15.60;
12542;PMS3003;6337;49.556;25.594;2022-11-20T06:36:00;28.63;14.85;
12542;PMS3003;6337;49.556;25.594;2022-11-20T06:38:28;25.10;14.23;
12542;PMS3003;6337;49.556;25.594;2022-11-20T06:40:55;38.55;18.20;
12542;PMS3003;6337;49.556;25.594;2022-11-20T06:43:23;29.10;13.52;
12542;PMS3003;6337;49.556;25.594;2022-11-20T06:45:53;36.25;17.35;
12542;PMS3003;6337;49.556;25.594;2022-11-20T06:48:21;30.95;16.00;
12542;PMS3003;6337;49.556;25.594;2022-11-20T06:50:49;25.73;13.93;
12542;PMS3003;6337;49.556;25.594;2022-11-20T06:53:17;24.42;11.80;
12542;PMS3003;6337;49.556;25.594;2022-11-20T06:55:45;23.98;12.25;
12542;PMS3003;6337;49.556;25.594;2022-11-20T06:58:13;23.60;11.27;
12542;PMS3003;6337;49.556;25.594;2022-11-20T07:00:41;22.98;10.20;
12542;PMS3003;6337;49.556;25.594;2022-11-20T07:03:11;21.17;12.63;
12542;PMS3003;6337;49.556;25.594;2022-11-20T07:05:39;26.50;12.43;
12542;PMS3003;6337;49.556;25.594;2022-11-20T07:08:07;29.58;13.73;
12542;PMS3003;6337;49.556;25.594;2022-11-20T07:10:34;27.90;13.40;
12542;PMS3003;6337;49.556;25.594;2022-11-20T07:13:02;16.88;10.15;
12542;PMS3003;6337;49.556;25.594;2022-11-20T07:15:30;21.65;11.55;
12542;PMS3003;6337;49.556;25.594;2022-11-20T07:18:03;22.13;11.15;
12542;PMS3003;6337;49.556;25.594;2022-11-20T07:20:33;25.65;12.52;
12542;PMS3003;6337;49.556;25.594;2022-11-20T07:23:00;15.90;10.38;
12542;PMS3003;6337;49.556;25.594;2022-11-20T07:25:28;18.20;10.65;
12542;PMS3003;6337;49.556;25.594;2022-11-20T07:27:56;18.98;12.25;
12542;PMS3003;6337;49.556;25.594;2022-11-20T07:30:26;20.15;10.65;
12542;PMS3003;6337;49.556;25.594;2022-11-20T07:32:55;18.45;10.55;
12542;PMS3003;6337;49.556;25.594;2022-11-20T07:35:23;34.50;17.50;
12542;PMS3003;6337;49.556;25.594;2022-11-20T07:37:52;35.08;15.73;
12542;PMS3003;6337;49.556;25.594;2022-11-20T07:40:20;21.45;10.50;
12542;PMS3003;6337;49.556;25.594;2022-11-20T07:42:48;19.92;11.30;
12542;PMS3003;6337;49.556;25.594;2022-11-20T07:45:16;19.92;11.20;
12542;PMS3003;6337;49.556;25.594;2022-11-20T07:47:44;23.20;13.77;
12542;PMS3003;6337;49.556;25.594;2022-11-20T07:50:12;29.95;12.93;
12542;PMS3003;6337;49.556;25.594;2022-11-20T07:52:40;19.73;11.25;
12542;PMS3003;6337;49.556;25.594;2022-11-20T07:55:10;24.00;12.65;
12542;PMS3003;6337;49.556;25.594;2022-11-20T07:57:39;15.10;10.20;
12542;PMS3003;6337;49.556;25.594;2022-11-20T08:00:08;20.80;11.60;
12542;PMS3003;6337;49.556;25.594;2022-11-20T08:02:38;17.83;11.30;
12542;PMS3003;6337;49.556;25.594;2022-11-20T08:05:05;17.85;12.35;
12542;PMS3003;6337;49.556;25.594;2022-11-20T08:07:45;24.35;11.15;
12542;PMS3003;6337;49.556;25.594;2022-11-20T08:10:14;20.40;11.93;
12542;PMS3003;6337;49.556;25.594;2022-11-20T08:12:47;21.13;11.48;
12542;PMS3003;6337;49.556;25.594;2022-11-20T08:15:32;22.58;11.52;
12542;PMS3003;6337;49.556;25.594;2022-11-20T08:18:00;24.33;11.43;
12542;PMS3003;6337;49.556;25.594;2022-11-20T08:20:29;23.33;13.20;
12542;PMS3003;6337;49.556;25.594;2022-11-20T08:23:00;23.83;11.77;
12542;PMS3003;6337;49.556;25.594;2022-11-20T08:25:30;19.73;12.30;
12542;PMS3003;6337;49.556;25.594;2022-11-20T08:27:57;17.80;11.00;
12542;PMS3003;6337;49.556;25.594;2022-11-20T08:30:25;18.20;11.65;
12542;PMS3003;6337;49.556;25.594;2022-11-20T08:32:53;25.88;15.13;
12542;PMS3003;6337;49.556;25.594;2022-11-20T08:35:21;14.77;10.77;
12542;PMS3003;6337;49.556;25.594;2022-11-20T08:37:49;25.05;12.88;
12542;PMS3003;6337;49.556;25.594;2022-11-20T08:40:16;19.52;11.10;
12542;PMS3003;6337;49.556;25.594;2022-11-20T08:42:49;33.72;15.82;
12542;PMS3003;6337;49.556;25.594;2022-11-20T08:45:18;32.38;16.45;
12542;PMS3003;6337;49.556;25.594;2022-11-20T08:47:46;25.15;11.15;
12542;PMS3003;6337;49.556;25.594;2022-11-20T08:50:14;22.35;10.50;
12542;PMS3003;6337;49.556;25.594;2022-11-20T08:52:42;19.02;10.18;
12542;PMS3003;6337;49.556;25.594;2022-11-20T08:55:10;19.67;10.40;
12542;PMS3003;6337;49.556;25.594;2022-11-20T08:57:39;19.55;11.27;
12542;PMS3003;6337;49.556;25.594;2022-11-20T09:00:10;16.63;10.23;
12542;PMS3003;6337;49.556;25.594;2022-11-20T09:02:39;20.00;11.60;
12542;PMS3003;6337;49.556;25.594;2022-11-20T09:05:06;16.27;11.20;
12542;PMS3003;6337;49.556;25.594;2022-11-20T09:07:34;18.17;10.95;
12542;PMS3003;6337;49.556;25.594;2022-11-20T09:10:02;26.35;13.73;
12542;PMS3003;6337;49.556;25.594;2022-11-20T09:12:30;25.48;12.80;
12542;PMS3003;6337;49.556;25.594;2022-11-20T09:14:58;20.90;12.40;
12542;PMS3003;6337;49.556;25.594;2022-11-20T09:17:27;20.73;13.07;
12542;PMS3003;6337;49.556;25.594;2022-11-20T09:19:55;29.92;15.95;
12542;PMS3003;6337;49.556;25.594;2022-11-20T09:22:23;23.85;12.43;
12542;PMS3003;6337;49.556;25.594;2022-11-20T09:24:50;36.00;16.75;
12542;PMS3003;6337;49.556;25.594;2022-11-20T09:27:24;29.00;12.98;
12542;PMS3003;6337;49.556;25.594;2022-11-20T09:30:09;31.05;14.10;
12542;PMS3003;6337;49.556;25.594;2022-11-20T09:32:39;19.15;11.43;
12542;PMS3003;6337;49.556;25.594;2022-11-20T09:35:13;19.08;11.48;
12542;PMS3003;6337;49.556;25.594;2022-11-20T09:37:41;17.55;11.90;
12542;PMS3003;6337;49.556;25.594;2022-11-20T09:40:13;13.93;10.45;
12542;PMS3003;6337;49.556;25.594;2022-11-20T09:42:47;16.27;11.18;
12542;PMS3003;6337;49.556;25.594;2022-11-20T09:45:21;18.95;10.73;
12542;PMS3003;6337;49.556;25.594;2022-11-20T09:47:57;19.25;11.05;
12542;PMS3003;6337;49.556;25.594;2022-11-20T09:50:28;14.05;9.77;
12542;PMS3003;6337;49.556;25.594;2022-11-20T09:53:04;20.30;10.57;
12542;PMS3003;6337;49.556;25.594;2022-11-20T09:55:35;26.25;13.63;
12542;PMS3003;6337;49.556;25.594;2022-11-20T09:58:05;22.90;12.25;
12542;PMS3003;6337;49.556;25.594;2022-11-20T10:00:34;24.33;13.40;
12542;PMS3003;6337;49.556;25.594;2022-11-20T10:03:06;28.92;12.43;
12542;PMS3003;6337;49.556;25.594;2022-11-20T10:05:39;20.73;12.73;
12542;PMS3003;6337;49.556;25.594;2022-11-20T10:08:11;24.23;11.80;
12542;PMS3003;6337;49.556;25.594;2022-11-20T10:10:44;20.08;11.50;
12542;PMS3003;6337;49.556;25.594;2022-11-20T10:13:16;19.10;11.60;
12542;PMS3003;6337;49.556;25.594;2022-11-20T10:15:47;24.05;12.85;
12542;PMS3003;6337;49.556;25.594;2022-11-20T10:18:23;14.75;9.55;
12542;PMS3003;6337;49.556;25.594;2022-11-20T10:20:56;19.65;11.02;
12542;PMS3003;6337;49.556;25.594;2022-11-20T10:26:16;15.02;9.85;
12542;PMS3003;6337;49.556;25.594;2022-11-20T10:28:47;19.15;12.32;
12542;PMS3003;6337;49.556;25.594;2022-11-20T10:31:17;16.08;11.35;
12542;PMS3003;6337;49.556;25.594;2022-11-20T10:33:52;18.58;11.48;
12542;PMS3003;6337;49.556;25.594;2022-11-20T10:36:22;20.33;11.93;
12542;PMS3003;6337;49.556;25.594;2022-11-20T10:38:57;17.02;9.85;
12542;PMS3003;6337;49.556;25.594;2022-11-20T10:41:27;13.50;9.35;
12542;PMS3003;6337;49.556;25.594;2022-11-20T10:44:00;24.40;13.40;
12542;PMS3003;6337;49.556;25.594;2022-11-20T10:46:32;15.63;10.18;
12542;PMS3003;6337;49.556;25.594;2022-11-20T10:49:04;17.02;11.45;
12542;PMS3003;6337;49.556;25.594;2022-11-20T10:51:35;14.93;10.85;
12542;PMS3003;6337;49.556;25.594;2022-11-20T10:54:09;18.08;11.43;
12542;PMS3003;6337;49.556;25.594;2022-11-20T10:56:40;20.52;12.43;
12542;PMS3003;6337;49.556;25.594;2022-11-20T10:59:28;22.38;12.35;
12542;PMS3003;6337;49.556;25.594;2022-11-20T11:01:58;20.17;11.82;
12542;PMS3003;6337;49.556;25.594;2022-11-20T11:04:32;18.05;11.75;
12542;PMS3003;6337;49.556;25.594;2022-11-20T11:07:04;19.08;10.82;
12542;PMS3003;6337;49.556;25.594;2022-11-20T11:09:37;26.08;14.52;
12542;PMS3003;6337;49.556;25.594;2022-11-20T11:12:06;18.08;10.45;
12542;PMS3003;6337;49.556;25.594;2022-11-20T11:14:41;20.67;11.70;
12542;PMS3003;6337;49.556;25.594;2022-11-20T11:17:17;15.98;8.68;
12542;PMS3003;6337;49.556;25.594;2022-11-20T11:19:47;20.58;12.40;
12542;PMS3003;6337;49.556;25.594;2022-11-20T11:22:23;13.52;9.68;
12542;PMS3003;6337;49.556;25.594;2022-11-20T11:24:52;14.50;10.20;
12542;PMS3003;6337;49.556;25.594;2022-11-20T11:27:20;13.00;10.82;
12542;PMS3003;6337;49.556;25.594;2022-11-20T11:29:48;17.45;9.57;
12542;PMS3003;6337;49.556;25.594;2022-11-20T11:32:17;17.67;10.85;
12542;PMS3003;6337;49.556;25.594;2022-11-20T11:34:59;18.60;11.77;
12542;PMS3003;6337;49.556;25.594;2022-11-20T11:37:27;25.48;14.43;
12542;PMS3003;6337;49.556;25.594;2022-11-20T11:39:56;20.27;11.55;
12542;PMS3003;6337;49.556;25.594;2022-11-20T11:42:24;19.70;13.18;
12542;PMS3003;6337;49.556;25.594;2022-11-20T11:44:51;16.48;11.50;
12542;PMS3003;6337;49.556;25.594;2022-11-20T11:47:31;29.20;16.00;
12542;PMS3003;6337;49.556;25.594;2022-11-20T11:50:07;21.17;11.25;
12542;PMS3003;6337;49.556;25.594;2022-11-20T11:52:42;17.05;11.20;
12542;PMS3003;6337;49.556;25.594;2022-11-20T11:55:13;18.60;11.55;
12542;PMS3003;6337;49.556;25.594;2022-11-20T11:57:43;15.15;10.25;
12542;PMS3003;6337;49.556;25.594;2022-11-20T12:00:14;18.70;11.10;
12542;PMS3003;6337;49.556;25.594;2022-11-20T12:02:46;15.82;10.68;
12542;PMS3003;6337;49.556;25.594;2022-11-20T12:05:18;21.25;13.23;
12542;PMS3003;6337;49.556;25.594;2022-11-20T12:07:47;17.48;10.75;
12542;PMS3003;6337;49.556;25.594;2022-11-20T12:10:20;16.77;11.27;
12542;PMS3003;6337;49.556;25.594;2022-11-20T12:12:50;16.95;10.50;
12542;PMS3003;6337;49.556;25.594;2022-11-20T12:15:28;17.55;11.85;
12542;PMS3003;6337;49.556;25.594;2022-11-20T12:17:56;15.73;10.43;
12542;PMS3003;6337;49.556;25.594;2022-11-20T12:20:27;20.25;12.05;
12542;PMS3003;6337;49.556;25.594;2022-11-20T12:22:56;18.40;11.07;
12542;PMS3003;6337;49.556;25.594;2022-11-20T12:25:27;18.52;11.82;
12542;PMS3003;6337;49.556;25.594;2022-11-20T12:28:00;19.83;12.20;
12542;PMS3003;6337;49.556;25.594;2022-11-20T12:30:30;16.45;10.00;
12542;PMS3003;6337;49.556;25.594;2022-11-20T12:33:16;20.70;11.55;
12542;PMS3003;6337;49.556;25.594;2022-11-20T12:35:55;20.85;14.02;
12542;PMS3003;6337;49.556;25.594;2022-11-20T12:38:32;27.55;12.30;
12542;PMS3003;6337;49.556;25.594;2022-11-20T12:41:05;18.02;11.27;
12542;PMS3003;6337;49.556;25.594;2022-11-20T12:43:36;19.50;10.05;
12542;PMS3003;6337;49.556;25.594;2022-11-20T12:46:24;16.60;10.88;
12542;PMS3003;6337;49.556;25.594;2022-11-20T12:48:58;16.73;11.77;
12542;PMS3003;6337;49.556;25.594;2022-11-20T12:51:36;24.50;13.02;
12542;PMS3003;6337;49.556;25.594;2022-11-20T12:56:50;17.63;11.85;
12542;PMS3003;6337;49.556;25.594;2022-11-20T12:59:23;33.63;15.98;
12542;PMS3003;6337;49.556;25.594;2022-11-20T13:01:55;20.05;12.93;
12542;PMS3003;6337;49.556;25.594;2022-11-20T13:07:13;23.35;12.93;
12542;PMS3003;6337;49.556;25.594;2022-11-20T13:09:42;23.60;12.70;
12542;PMS3003;6337;49.556;25.594;2022-11-20T13:12:14;19.08;10.85;
12542;PMS3003;6337;49.556;25.594;2022-11-20T13:14:45;20.38;12.55;
12542;PMS3003;6337;49.556;25.594;2022-11-20T13:17:16;23.67;11.65;
12542;PMS3003;6337;49.556;25.594;2022-11-20T13:19:48;21.13;12.98;
12542;PMS3003;6337;49.556;25.594;2022-11-20T13:22:25;17.75;13.25;
12542;PMS3003;6337;49.556;25.594;2022-11-20T13:24:52;23.50;12.77;
12542;PMS3003;6337;49.556;25.594;2022-11-20T13:27:20;23.58;11.85;
12542;PMS3003;6337;49.556;25.594;2022-11-20T13:30:02;24.48;13.52;
12542;PMS3003;6337;49.556;25.594;2022-11-20T13:32:30;20.38;12.18;
12542;PMS3003;6337;49.556;25.594;2022-11-20T13:34:58;20.52;11.85;
12542;PMS3003;6337;49.556;25.594;2022-11-20T13:37:33;23.83;11.10;
12542;PMS3003;6337;49.556;25.594;2022-11-20T13:40:19;19.77;11.73;
12542;PMS3003;6337;49.556;25.594;2022-11-20T13:42:54;21.17;11.70;
12542;PMS3003;6337;49.556;25.594;2022-11-20T13:45:23;25.48;12.85;
12542;PMS3003;6337;49.556;25.594;2022-11-20T13:47:53;21.45;11.40;
12542;PMS3003;6337;49.556;25.594;2022-11-20T13:50:21;21.13;13.32;
12542;PMS3003;6337;49.556;25.594;2022-11-20T13:52:58;20.67;11.07;
12542;PMS3003;6337;49.556;25.594;2022-11-20T13:55:33;26.88;16.35;
12542;PMS3003;6337;49.556;25.594;2022-11-20T13:58:04;25.95;16.75;
12542;PMS3003;6337;49.556;25.594;2022-11-20T14:00:33;28.33;14.25;
12542;PMS3003;6337;49.556;25.594;2022-11-20T14:03:02;21.88;13.50;
12542;PMS3003;6337;49.556;25.594;2022-11-20T14:05:35;24.20;12.95;
12542;PMS3003;6337;49.556;25.594;2022-11-20T14:08:11;36.40;15.80;
12542;PMS3003;6337;49.556;25.594;2022-11-20T14:10:40;15.32;11.45;
12542;PMS3003;6337;49.556;25.594;2022-11-20T14:13:12;18.33;12.63;
12542;PMS3003;6337;49.556;25.594;2022-11-20T14:15:42;22.70;10.57;
12542;PMS3003;6337;49.556;25.594;2022-11-20T14:18:13;16.70;10.70;
12542;PMS3003;6337;49.556;25.594;2022-11-20T14:20:41;19.33;12.70;
12542;PMS3003;6337;49.556;25.594;2022-11-20T14:23:11;21.85;13.95;
12542;PMS3003;6337;49.556;25.594;2022-11-20T14:25:41;21.70;13.35;
12542;PMS3003;6337;49.556;25.594;2022-11-20T14:28:10;33.13;16.52;
12542;PMS3003;6337;49.556;25.594;2022-11-20T14:30:42;20.75;11.60;
12542;PMS3003;6337;49.556;25.594;2022-11-20T14:33:10;19.88;12.13;
12542;PMS3003;6337;49.556;25.594;2022-11-20T14:35:40;22.75;10.77;
12542;PMS3003;6337;49.556;25.594;2022-11-20T14:38:13;27.02;12.15;
12542;PMS3003;6337;49.556;25.594;2022-11-20T14:40:42;20.80;12.30;
12542;PMS3003;6337;49.556;25.594;2022-11-20T14:43:21;25.25;12.40;
12542;PMS3003;6337;49.556;25.594;2022-11-20T14:45:52;22.88;11.88;
12542;PMS3003;6337;49.556;25.594;2022-11-20T14:48:23;20.73;11.30;
12542;PMS3003;6337;49.556;25.594;2022-11-20T14:50:55;18.35;12.57;
12542;PMS3003;6337;49.556;25.594;2022-11-20T14:53:24;22.35;11.50;
12542;PMS3003;6337;49.556;25.594;2022-11-20T14:55:56;19.92;10.75;
12542;PMS3003;6337;49.556;25.594;2022-11-20T14:58:25;22.83;12.57;
12542;PMS3003;6337;49.556;25.594;2022-11-20T15:00:54;24.88;12.65;
12542;PMS3003;6337;49.556;25.594;2022-11-20T15:03:30;25.48;13.55;
12542;PMS3003;6337;49.556;25.594;2022-11-20T15:05:58;26.75;13.30;
12542;PMS3003;6337;49.556;25.594;2022-11-20T15:08:29;16.92;11.23;
12542;PMS3003;6337;49.556;25.594;2022-11-20T15:10:57;20.38;11.32;
12542;PMS3003;6337;49.556;25.594;2022-11-20T15:13:29;22.42;12.80;